Time;durP1;ratioP1;P1;durP2;ratioP2;P2;SDS_P1;SDS_P2;PMS_P1;PMS_P2;Temp;Humidity;BMP_temperature;BMP_pressure;BME280_temperature;BME280_humidity;BME280_pressure;Samples;Min_cycle;Max_cycle;Signal;HPM_P1;HPM_P2
2023/03/31 00:00:26;;;;;;;;;;;;;;;8.45;93.70;95915.59;5116850;28;19938;-70
2023/03/31 00:02:57;;;;;;;;;;;;;;;8.45;93.63;95896.50;5118306;28;19975;-73
2023/03/31 00:05:26;;;;;;;;;;;;;;;8.45;93.69;95904.34;5118826;28;19941;-74
2023/03/31 00:08:02;;;;;;;;;;;;;;;8.45;94.77;95912.19;5118698;28;19941;-76
2023/03/31 00:10:32;;;;;;;;;;;;;;;8.42;93.89;95904.78;5118405;28;19941;-73
2023/03/31 00:12:59;;;;;;;;;;;;;;;8.40;93.85;95902.38;5119115;28;19938;-73
2023/03/31 00:15:26;;;;;;;;;;;;;;;8.39;93.87;95899.97;5118000;28;20315;-73
2023/03/31 00:17:52;;;;;;;;;;;;;;;8.37;93.87;95888.94;5118003;28;19943;-69
2023/03/31 00:20:17;;;;;;;;;;;;;;;8.32;94.40;95887.75;5117943;28;20475;-67
2023/03/31 00:22:46;;;;;;;;;;;;;;;8.31;94.67;95896.59;5116934;28;19993;-68
2023/03/31 00:25:12;;;;;;;;;;;;;;;8.29;94.70;95893.44;5117760;28;19949;-67
2023/03/31 00:27:43;;;;;;;;;;;;;;;8.30;94.63;95889.00;5117771;28;19935;-67
2023/03/31 00:30:09;;;;;;;;;;;;;;;8.29;94.81;95880.38;5118522;28;19938;-66
2023/03/31 00:32:35;;;;;;;;;;;;;;;8.29;95.09;95885.59;5118402;28;19952;-66
2023/03/31 00:35:01;;;;;;;;;;;;;;;8.29;95.36;95887.38;5117776;28;19954;-68
2023/03/31 00:37:28;;;;;;;;;;;;;;;8.30;95.49;95891.63;5117550;28;19954;-68
2023/03/31 00:39:54;;;;;;;;;;;;;;;8.28;95.15;95881.38;5117614;28;20392;-67
2023/03/31 00:42:20;;;;;;;;;;;;;;;8.27;95.16;95874.56;5118366;28;19940;-67
2023/03/31 00:45:05;;;;;;;;;;;;;;;8.26;95.14;95867.72;5117458;28;19949;-68
2023/03/31 00:47:31;;;;;;;;;;;;;;;8.27;95.58;95871.97;5118101;28;19940;-67
2023/03/31 00:49:57;;;;;;;;;;;;;;;8.26;95.70;95851.28;5116942;28;19941;-67
2023/03/31 00:52:26;;;;;;;;;;;;;;;8.27;95.93;95842.41;5117233;28;19946;-68
2023/03/31 00:54:54;;;;;;;;;;;;;;;8.27;95.68;95845.84;5117917;28;20438;-69
2023/03/31 00:57:22;;;;;;;;;;;;;;;8.28;96.23;95836.19;5118087;28;19940;-69
2023/03/31 00:59:50;;;;;;;;;;;;;;;8.28;96.60;95825.72;5117504;28;19937;-77
2023/03/31 01:02:19;;;;;;;;;;;;;;;8.25;96.24;95813.91;5117092;28;20323;-76
2023/03/31 01:04:49;;;;;;;;;;;;;;;8.26;96.13;95806.88;5116463;28;19949;-75
2023/03/31 01:07:21;;;;;;;;;;;;;;;8.26;96.32;95799.81;5117369;28;19964;-76
2023/03/31 01:09:49;;;;;;;;;;;;;;;8.29;97.33;95814.25;5117548;28;19946;-79
2023/03/31 01:12:16;;;;;;;;;;;;;;;8.30;96.59;95811.44;5114578;28;19948;-73
2023/03/31 01:14:42;;;;;;;;;;;;;;;8.32;97.10;95829.50;5116504;28;19966;-69
2023/03/31 01:17:09;;;;;;;;;;;;;;;8.33;96.85;95831.09;5115807;28;19949;-72
2023/03/31 01:19:44;;;;;;;;;;;;;;;8.34;96.76;95828.25;5116869;28;19936;-72
2023/03/31 01:22:29;;;;;;;;;;;;;;;8.37;96.88;95823.63;5117045;28;20028;-73
2023/03/31 01:25:07;;;;;;;;;;;;;;;8.37;97.44;95824.41;5116878;28;20398;-73
2023/03/31 01:27:42;;;;;;;;;;;;;;;8.31;98.85;95805.16;5117530;28;20306;-73
2023/03/31 01:30:08;;;;;;;;;;;;;;;8.24;100.00;95807.06;5116926;28;19945;-72
2023/03/31 01:32:34;;;;;;;;;;;;;;;8.22;100.00;95809.09;5117426;28;20288;-75
2023/03/31 01:35:05;;;;;;;;;;;;;;;8.20;100.00;95815.56;5115317;28;19954;-71
2023/03/31 01:37:31;;;;;;;;;;;;;;;8.20;100.00;95816.38;5116473;28;19962;-71
2023/03/31 01:40:14;;;;;;;;;;;;;;;8.24;100.00;95812.28;5116987;28;19944;-71
2023/03/31 01:42:40;;;;;;;;;;;;;;;8.32;100.00;95825.06;5116902;28;19938;-72
2023/03/31 01:45:21;;;;;;;;;;;;;;;8.36;100.00;95820.22;5116273;28;19983;-72
2023/03/31 01:47:59;;;;;;;;;;;;;;;8.43;100.00;95817.53;5116587;28;20318;-72
2023/03/31 01:50:25;;;;;;;;;;;;;;;8.48;100.00;95813.28;5116146;28;19941;-69
2023/03/31 01:52:57;;;;;;;;;;;;;;;8.51;100.00;95818.03;5116116;28;19951;-70
2023/03/31 01:55:41;;;;;;;;;;;;;;;8.55;100.00;95815.78;5116122;28;20327;-70
2023/03/31 01:58:10;;;;;;;;;;;;;;;8.58;100.00;95820.56;5116533;28;19950;-70
2023/03/31 02:00:50;;;;;;;;;;;;;;;8.59;100.00;95806.50;5115780;28;19949;-69
2023/03/31 02:03:20;;;;;;;;;;;;;;;8.61;100.00;95808.88;5115812;28;19973;-69
2023/03/31 02:05:49;;;;;;;;;;;;;;;8.63;100.00;95806.84;5115788;28;19946;-69
2023/03/31 02:08:20;;;;;;;;;;;;;;;8.64;100.00;95795.38;5116367;28;20311;-70
2023/03/31 02:10:46;;;;;;;;;;;;;;;8.61;100.00;95783.56;5116408;28;19943;-70
2023/03/31 02:13:14;;;;;;;;;;;;;;;8.62;100.00;95773.88;5115986;28;19946;-72
2023/03/31 02:15:42;;;;;;;;;;;;;;;8.62;100.00;95766.03;5116454;28;19966;-72
2023/03/31 02:18:10;;;;;;;;;;;;;;;8.62;100.00;95750.38;5116121;28;19942;-73
2023/03/31 02:20:40;;;;;;;;;;;;;;;8.62;100.00;95745.94;5116389;28;19944;-72
2023/03/31 02:23:07;;;;;;;;;;;;;;;8.61;100.00;95726.06;5115802;28;19943;-72
2023/03/31 02:25:53;;;;;;;;;;;;;;;8.61;100.00;95710.38;5115444;28;19939;-71
2023/03/31 02:28:21;;;;;;;;;;;;;;;8.59;100.00;95683.66;5113888;28;19968;-70
2023/03/31 02:30:47;;;;;;;;;;;;;;;8.61;100.00;95671.16;5115351;28;20316;-68
2023/03/31 02:33:13;;;;;;;;;;;;;;;8.61;100.00;95673.78;5115423;28;19951;-66
2023/03/31 02:35:38;;;;;;;;;;;;;;;8.63;100.00;95661.28;5115155;28;19988;-68
2023/03/31 02:38:05;;;;;;;;;;;;;;;8.64;100.00;95657.63;5115303;28;20000;-68
2023/03/31 02:40:31;;;;;;;;;;;;;;;8.66;100.00;95649.59;5115184;28;19946;-66
2023/03/31 02:42:57;;;;;;;;;;;;;;;8.66;100.00;95634.69;5115467;28;19937;-66
2023/03/31 02:45:36;;;;;;;;;;;;;;;8.63;100.00;95634.34;5115984;28;19947;-71
2023/03/31 02:48:03;;;;;;;;;;;;;;;8.59;100.00;95631.41;5115919;28;19940;-74
2023/03/31 02:50:33;;;;;;;;;;;;;;;8.59;100.00;95620.13;5114926;28;19947;-69
2023/03/31 02:53:08;;;;;;;;;;;;;;;8.59;100.00;95617.50;5115803;28;19951;-70
2023/03/31 02:55:46;;;;;;;;;;;;;;;8.60;100.00;95616.50;5115655;28;19971;-70
2023/03/31 02:58:30;;;;;;;;;;;;;;;8.60;100.00;95606.06;5115430;28;19937;-70
2023/03/31 03:01:04;;;;;;;;;;;;;;;8.60;100.00;95606.84;5115667;28;19941;-70
2023/03/31 03:03:36;;;;;;;;;;;;;;;8.60;100.00;95588.53;5115321;28;19943;-70
2023/03/31 03:06:22;;;;;;;;;;;;;;;8.59;100.00;95579.13;5115097;28;19948;-68
2023/03/31 03:08:54;;;;;;;;;;;;;;;8.58;100.00;95571.50;5115583;28;19938;-69
2023/03/31 03:11:45;;;;;;;;;;;;;;;8.54;100.00;95569.34;5115216;28;19960;-69
2023/03/31 03:14:22;;;;;;;;;;;;;;;8.49;100.00;95561.38;5114608;28;19963;-69
2023/03/31 03:16:52;;;;;;;;;;;;;;;8.43;100.00;95551.06;5115043;28;20415;-69
2023/03/31 03:19:20;;;;;;;;;;;;;;;8.40;100.00;95551.47;5114407;28;19938;-69
2023/03/31 03:21:46;;;;;;;;;;;;;;;8.34;100.00;95534.88;5114428;28;20430;-69
2023/03/31 03:24:16;;;;;;;;;;;;;;;8.30;100.00;95534.53;5115283;28;19940;-72
2023/03/31 03:26:43;;;;;;;;;;;;;;;8.28;100.00;95531.34;5114407;28;20319;-70
2023/03/31 03:29:12;;;;;;;;;;;;;;;8.27;100.00;95527.16;5115279;28;19959;-69
2023/03/31 03:31:38;;;;;;;;;;;;;;;8.26;100.00;95536.00;5114528;28;20319;-69
2023/03/31 03:34:03;;;;;;;;;;;;;;;8.23;100.00;95517.38;5114467;28;20350;-69
2023/03/31 03:36:29;;;;;;;;;;;;;;;8.21;100.00;95509.78;5114552;28;19956;-70
2023/03/31 03:38:55;;;;;;;;;;;;;;;8.21;100.00;95508.97;5114311;28;19944;-69
2023/03/31 03:41:21;;;;;;;;;;;;;;;8.20;100.00;95491.72;5114566;28;19944;-73
2023/03/31 03:43:47;;;;;;;;;;;;;;;8.19;100.00;95483.09;5114815;28;19977;-72
2023/03/31 03:46:13;;;;;;;;;;;;;;;8.15;100.00;95487.19;5112831;28;19958;-72
2023/03/31 03:48:39;;;;;;;;;;;;;;;8.10;100.00;95466.16;5114974;28;19949;-72
2023/03/31 03:51:05;;;;;;;;;;;;;;;8.09;100.00;95473.19;5114355;28;19941;-72
2023/03/31 03:53:31;;;;;;;;;;;;;;;8.08;100.00;95466.41;5112903;28;20429;-73
2023/03/31 03:55:58;;;;;;;;;;;;;;;8.08;100.00;95462.97;5114044;28;19959;-72
2023/03/31 03:58:24;;;;;;;;;;;;;;;8.04;100.00;95457.44;5114311;28;19944;-72
2023/03/31 04:00:49;;;;;;;;;;;;;;;8.01;100.00;95446.63;5114264;28;20046;-69
2023/03/31 04:03:15;;;;;;;;;;;;;;;7.99;100.00;95435.63;5114114;28;19979;-69
2023/03/31 04:05:41;;;;;;;;;;;;;;;7.98;100.00;95413.94;5114790;28;20033;-70
2023/03/31 04:08:07;;;;;;;;;;;;;;;7.90;100.00;95412.47;5114034;28;19988;-69
2023/03/31 04:10:34;;;;;;;;;;;;;;;7.86;100.00;95406.09;5114931;28;19942;-70
2023/03/31 04:13:00;;;;;;;;;;;;;;;7.85;100.00;95417.56;5114437;28;19948;-70
2023/03/31 04:15:25;;;;;;;;;;;;;;;7.85;100.00;95411.53;5114580;28;19960;-70
2023/03/31 04:17:53;;;;;;;;;;;;;;;7.85;100.00;95407.13;5112595;28;19946;-69
2023/03/31 04:20:19;;;;;;;;;;;;;;;7.88;100.00;95406.66;5113815;28;19936;-69
2023/03/31 04:22:49;;;;;;;;;;;;;;;7.90;100.00;95402.00;5114392;28;20392;-70
2023/03/31 04:25:15;;;;;;;;;;;;;;;7.93;100.00;95403.38;5114907;28;19952;-72
2023/03/31 04:27:54;;;;;;;;;;;;;;;7.96;100.00;95405.53;5114028;28;19938;-70
2023/03/31 04:30:29;;;;;;;;;;;;;;;7.99;100.00;95397.25;5114640;28;19935;-69
2023/03/31 04:33:05;;;;;;;;;;;;;;;8.04;100.00;95392.16;5113929;28;20436;-69
2023/03/31 04:35:49;;;;;;;;;;;;;;;8.08;100.00;95382.84;5113799;28;19958;-71
2023/03/31 04:38:17;;;;;;;;;;;;;;;8.10;100.00;95388.59;5114344;28;19947;-71
2023/03/31 04:40:44;;;;;;;;;;;;;;;8.13;100.00;95401.22;5114653;28;19942;-72
2023/03/31 04:43:10;;;;;;;;;;;;;;;8.14;100.00;95402.78;5113661;28;19939;-73
2023/03/31 04:45:36;;;;;;;;;;;;;;;8.16;100.00;95397.34;5114813;28;19949;-73
2023/03/31 04:48:02;;;;;;;;;;;;;;;8.16;100.00;95405.19;5117631;28;19937;-73
2023/03/31 04:50:28;;;;;;;;;;;;;;;8.17;100.00;95403.38;5117260;28;19947;-74
2023/03/31 04:52:54;;;;;;;;;;;;;;;8.17;100.00;95404.19;5117008;28;20301;-74
2023/03/31 04:55:20;;;;;;;;;;;;;;;8.13;100.00;95393.38;5117680;28;19953;-72
2023/03/31 04:57:46;;;;;;;;;;;;;;;8.10;100.00;95383.38;5118116;28;19947;-72
2023/03/31 05:00:12;;;;;;;;;;;;;;;8.09;100.00;95365.34;5117247;28;19938;-73
2023/03/31 05:02:38;;;;;;;;;;;;;;;8.07;100.00;95373.41;5117033;28;19973;-73
2023/03/31 05:05:04;;;;;;;;;;;;;;;8.08;100.00;95374.19;5117152;28;19944;-72
2023/03/31 05:07:30;;;;;;;;;;;;;;;8.09;100.00;95394.88;5117607;28;20289;-73
2023/03/31 05:09:56;;;;;;;;;;;;;;;8.12;100.00;95402.22;5117035;28;19940;-72
2023/03/31 05:12:22;;;;;;;;;;;;;;;8.11;100.00;95399.88;5117571;28;19943;-73
2023/03/31 05:14:48;;;;;;;;;;;;;;;8.10;100.00;95406.88;5117338;28;20053;-73
2023/03/31 05:17:16;;;;;;;;;;;;;;;8.12;100.00;95424.94;5117452;28;19951;-72
2023/03/31 05:19:43;;;;;;;;;;;;;;;8.11;100.00;95403.25;5116728;28;19944;-72
2023/03/31 05:22:09;;;;;;;;;;;;;;;8.10;100.00;95390.44;5116864;28;19942;-71
2023/03/31 05:24:34;;;;;;;;;;;;;;;8.09;100.00;95381.03;5116682;28;19942;-72
2023/03/31 05:27:01;;;;;;;;;;;;;;;8.11;100.00;95389.44;5116974;28;19950;-71
2023/03/31 05:29:26;;;;;;;;;;;;;;;8.10;100.00;95380.78;5117418;28;19947;-71
2023/03/31 05:31:52;;;;;;;;;;;;;;;8.10;100.00;95366.94;5117198;28;19939;-71
2023/03/31 05:34:18;;;;;;;;;;;;;;;8.10;100.00;95377.38;5116723;28;20034;-73
2023/03/31 05:36:46;;;;;;;;;;;;;;;8.10;100.00;95365.09;5116460;28;19974;-73
2023/03/31 05:39:13;;;;;;;;;;;;;;;8.11;100.00;95366.72;5116454;28;19940;-73
2023/03/31 05:41:39;;;;;;;;;;;;;;;8.13;100.00;95369.09;5116674;28;20307;-73
2023/03/31 05:44:05;;;;;;;;;;;;;;;8.14;100.00;95363.63;5116953;28;19939;-73
2023/03/31 05:46:30;;;;;;;;;;;;;;;8.16;100.00;95354.78;5116259;28;20064;-74
2023/03/31 05:48:57;;;;;;;;;;;;;;;8.17;100.00;95354.56;5117152;28;19946;-73
2023/03/31 05:51:23;;;;;;;;;;;;;;;8.19;100.00;95333.41;5117091;28;19939;-73
2023/03/31 05:53:49;;;;;;;;;;;;;;;8.18;100.00;95316.19;5116748;28;19948;-66
2023/03/31 05:56:15;;;;;;;;;;;;;;;8.15;100.00;95325.28;5116083;28;19953;-66
2023/03/31 05:58:41;;;;;;;;;;;;;;;8.17;100.00;95328.44;5116070;28;19954;-66
2023/03/31 06:01:07;;;;;;;;;;;;;;;8.21;100.00;95332.19;5115888;28;19942;-66
2023/03/31 06:03:33;;;;;;;;;;;;;;;8.23;100.00;95317.09;5116878;28;19949;-67
2023/03/31 06:06:00;;;;;;;;;;;;;;;8.25;100.00;95311.63;5115952;28;19944;-67
2023/03/31 06:08:27;;;;;;;;;;;;;;;8.27;100.00;95301.72;5115547;28;19947;-68
2023/03/31 06:10:53;;;;;;;;;;;;;;;8.29;100.00;95292.66;5115874;28;19997;-68
2023/03/31 06:13:19;;;;;;;;;;;;;;;8.30;100.00;95294.22;5115787;28;19943;-71
2023/03/31 06:15:57;;;;;;;;;;;;;;;8.30;100.00;95290.84;5116440;28;19964;-71
2023/03/31 06:18:24;;;;;;;;;;;;;;;8.31;100.00;95287.97;5115628;28;20398;-71
2023/03/31 06:20:50;;;;;;;;;;;;;;;8.33;100.00;95293.75;5115623;28;19942;-71
2023/03/31 06:23:16;;;;;;;;;;;;;;;8.34;100.00;95294.56;5115518;28;20418;-72
2023/03/31 06:25:42;;;;;;;;;;;;;;;8.34;100.00;95303.19;5116015;28;19938;-71
2023/03/31 06:28:08;;;;;;;;;;;;;;;8.32;100.00;95297.41;5115437;28;19962;-74
2023/03/31 06:30:34;;;;;;;;;;;;;;;8.28;100.00;95280.63;5114255;28;19939;-73
2023/03/31 06:33:00;;;;;;;;;;;;;;;8.24;100.00;95284.72;5115633;28;19946;-73
2023/03/31 06:35:26;;;;;;;;;;;;;;;8.19;100.00;95299.47;5115864;28;19960;-71
2023/03/31 06:37:52;;;;;;;;;;;;;;;8.13;100.00;95303.81;5115151;28;20335;-73
2023/03/31 06:40:18;;;;;;;;;;;;;;;8.10;100.00;95328.56;5115172;28;19937;-72
2023/03/31 06:42:44;;;;;;;;;;;;;;;8.10;100.00;95333.78;5115142;28;20043;-72
2023/03/31 06:45:09;;;;;;;;;;;;;;;8.09;100.00;95358.31;5115673;28;20357;-76
2023/03/31 06:47:40;;;;;;;;;;;;;;;8.13;100.00;95371.72;5115098;28;19940;-71
2023/03/31 06:50:07;;;;;;;;;;;;;;;8.33;100.00;95390.41;5115781;28;20337;-70
2023/03/31 06:52:33;;;;;;;;;;;;;;;8.33;100.00;95385.19;5114892;28;20397;-70
2023/03/31 06:54:59;;;;;;;;;;;;;;;8.29;100.00;95406.78;5115524;28;19956;-70
2023/03/31 06:57:26;;;;;;;;;;;;;;;8.23;100.00;95418.13;5114872;28;19942;-68
2023/03/31 06:59:51;;;;;;;;;;;;;;;8.20;100.00;95427.22;5114777;28;19937;-70
2023/03/31 07:02:17;;;;;;;;;;;;;;;8.17;100.00;95404.19;5115100;28;19970;-68
2023/03/31 07:04:43;;;;;;;;;;;;;;;8.18;100.00;95381.47;5114999;28;19951;-70
2023/03/31 07:07:09;;;;;;;;;;;;;;;8.16;100.00;95370.44;5115044;28;19982;-77
2023/03/31 07:09:35;;;;;;;;;;;;;;;8.16;100.00;95391.34;5114381;28;19946;-77
2023/03/31 07:12:04;;;;;;;;;;;;;;;8.14;100.00;95326.28;5115274;28;20342;-74
2023/03/31 07:14:33;;;;;;;;;;;;;;;8.11;100.00;95327.53;5114868;28;19942;-74
2023/03/31 07:16:59;;;;;;;;;;;;;;;8.11;100.00;95318.94;5114046;28;19941;-74
2023/03/31 07:19:24;;;;;;;;;;;;;;;8.13;100.00;95324.72;5114581;28;19954;-76
2023/03/31 07:21:51;;;;;;;;;;;;;;;8.42;100.00;95327.38;5114477;28;19944;-70
2023/03/31 07:24:17;;;;;;;;;;;;;;;8.77;100.00;95327.28;5115273;28;19942;-69
2023/03/31 07:26:43;;;;;;;;;;;;;;;9.01;100.00;95304.44;5113454;28;19940;-74
2023/03/31 07:29:09;;;;;;;;;;;;;;;9.41;100.00;95318.41;5114241;28;19987;-74
2023/03/31 07:31:35;;;;;;;;;;;;;;;9.67;100.00;95307.28;5113139;28;19944;-76
2023/03/31 07:34:01;;;;;;;;;;;;;;;9.60;100.00;95283.13;5114796;28;19952;-75
2023/03/31 07:36:28;;;;;;;;;;;;;;;9.35;100.00;95291.38;5114341;28;19976;-77
2023/03/31 07:38:54;;;;;;;;;;;;;;;9.32;100.00;95286.63;5114228;28;19942;-73
2023/03/31 07:41:20;;;;;;;;;;;;;;;9.31;100.00;95279.81;5114220;28;20044;-76
2023/03/31 07:43:47;;;;;;;;;;;;;;;9.20;100.00;95276.25;5113609;28;19949;-70
2023/03/31 07:46:14;;;;;;;;;;;;;;;9.13;100.00;95292.09;5112835;28;19947;-70
2023/03/31 07:48:40;;;;;;;;;;;;;;;9.28;100.00;95291.56;5113436;28;20307;-71
2023/03/31 07:51:06;;;;;;;;;;;;;;;9.38;100.00;95272.59;5114696;28;19951;-71
2023/03/31 07:53:32;;;;;;;;;;;;;;;9.55;100.00;95272.56;5113647;28;19944;-71
2023/03/31 07:55:58;;;;;;;;;;;;;;;9.83;100.00;95268.25;5114107;28;19967;-71
2023/03/31 07:58:24;;;;;;;;;;;;;;;10.12;100.00;95261.81;5114887;28;20017;-72
2023/03/31 08:00:50;;;;;;;;;;;;;;;10.53;100.00;95254.44;5113879;28;19972;-73
2023/03/31 08:03:15;;;;;;;;;;;;;;;10.91;100.00;95247.44;5113898;28;19976;-70
2023/03/31 08:05:41;;;;;;;;;;;;;;;11.09;95.56;95227.94;5113859;28;19951;-70
2023/03/31 08:08:07;;;;;;;;;;;;;;;11.32;96.48;95239.91;5114765;28;19992;-70
2023/03/31 08:10:33;;;;;;;;;;;;;;;11.58;97.65;95245.31;5114506;28;20263;-71
2023/03/31 08:12:59;;;;;;;;;;;;;;;11.78;96.42;95234.16;5114755;28;20335;-71
2023/03/31 08:15:25;;;;;;;;;;;;;;;12.07;96.08;95239.03;5113731;28;19955;-70
2023/03/31 08:17:50;;;;;;;;;;;;;;;12.29;92.14;95217.84;5114647;28;19947;-71
2023/03/31 08:20:16;;;;;;;;;;;;;;;12.39;94.20;95237.06;5114367;27;19939;-69
2023/03/31 08:22:42;;;;;;;;;;;;;;;12.61;89.73;95208.97;5118683;28;19996;-72
2023/03/31 08:25:08;;;;;;;;;;;;;;;12.70;90.30;95215.28;5116659;28;19998;-71
2023/03/31 08:27:35;;;;;;;;;;;;;;;12.86;90.38;95221.38;5116638;28;19967;-72
2023/03/31 08:30:03;;;;;;;;;;;;;;;12.83;87.08;95192.94;5117743;28;19951;-72
2023/03/31 08:32:30;;;;;;;;;;;;;;;12.83;88.66;95206.09;5117749;28;19934;-72
2023/03/31 08:34:56;;;;;;;;;;;;;;;12.60;89.39;95218.72;5118436;28;19948;-70
2023/03/31 08:37:23;;;;;;;;;;;;;;;12.42;90.96;95232.34;5117628;28;19962;-71
2023/03/31 08:39:48;;;;;;;;;;;;;;;12.42;90.12;95241.00;5117613;28;19940;-69
2023/03/31 08:42:18;;;;;;;;;;;;;;;12.31;87.75;95215.75;5117541;28;20041;-69
2023/03/31 08:44:49;;;;;;;;;;;;;;;12.54;89.23;95225.78;5117531;28;20406;-70
2023/03/31 08:47:19;;;;;;;;;;;;;;;12.71;89.18;95215.03;5118398;28;20290;-69
2023/03/31 08:49:48;;;;;;;;;;;;;;;12.94;88.37;95205.06;5117981;28;19937;-69
2023/03/31 08:52:18;;;;;;;;;;;;;;;13.15;85.62;95190.84;5117391;28;19957;-68
2023/03/31 08:54:50;;;;;;;;;;;;;;;13.28;83.36;95178.97;5117244;28;19938;-80
2023/03/31 08:57:24;;;;;;;;;;;;;;;13.34;80.85;95164.78;5117358;28;19952;-80
2023/03/31 08:59:51;;;;;;;;;;;;;;;13.07;80.58;95169.53;5116909;28;19954;-81
2023/03/31 09:02:23;;;;;;;;;;;;;;;12.90;79.89;95162.69;5116950;28;20456;-81
2023/03/31 09:05:07;;;;;;;;;;;;;;;12.69;80.49;95166.38;5115979;28;19951;-82
2023/03/31 09:07:50;;;;;;;;;;;;;;;12.61;83.15;95182.66;5116597;28;20190;-83
2023/03/31 09:10:27;;;;;;;;;;;;;;;12.80;81.80;95160.06;5117989;28;20302;-81
2023/03/31 09:12:53;;;;;;;;;;;;;;;13.04;77.29;95122.66;5117468;28;19942;-70
2023/03/31 09:15:38;;;;;;;;;;;;;;;13.09;79.56;95127.94;5116236;28;19969;-82
2023/03/31 09:18:23;;;;;;;;;;;;;;;13.44;77.94;95116.56;5116484;28;19947;-82
2023/03/31 09:20:50;;;;;;;;;;;;;;;13.57;74.86;95060.69;5116822;28;19948;-82
2023/03/31 09:23:35;;;;;;;;;;;;;;;13.64;73.44;95091.22;5116770;28;19944;-83
2023/03/31 09:26:02;;;;;;;;;;;;;;;13.56;73.80;95093.34;5116703;28;19942;-81
2023/03/31 09:28:38;;;;;;;;;;;;;;;13.33;72.24;95078.97;5116167;28;19950;-83
2023/03/31 09:31:11;;;;;;;;;;;;;;;13.12;71.36;95087.91;5116696;28;19949;-71
2023/03/31 09:33:40;;;;;;;;;;;;;;;13.19;72.28;95091.06;5115855;28;19941;-69
2023/03/31 09:36:16;;;;;;;;;;;;;;;13.15;70.33;95066.34;5098614;28;19988;-68
2023/03/31 09:38:43;;;;;;;;;;;;;;;13.17;71.87;95072.13;5116871;28;19950;-68
2023/03/31 09:41:10;;;;;;;;;;;;;;;13.38;69.60;95044.69;5116504;28;20331;-69
2023/03/31 09:43:39;;;;;;;;;;;;;;;13.58;70.12;95043.03;5116297;28;19945;-67
2023/03/31 09:46:14;;;;;;;;;;;;;;;13.71;68.05;95020.56;5116583;28;19938;-66
2023/03/31 09:48:41;;;;;;;;;;;;;;;13.66;69.68;95055.63;5117108;28;19943;-67
2023/03/31 09:51:12;;;;;;;;;;;;;;;13.53;65.38;94988.53;5116272;28;19943;-66
2023/03/31 09:53:47;;;;;;;;;;;;;;;13.44;68.70;95023.59;5115644;28;19960;-69
2023/03/31 09:56:30;;;;;;;;;;;;;;;13.42;67.17;94997.56;5115091;28;20447;-69
2023/03/31 09:59:00;;;;;;;;;;;;;;;13.66;68.70;95008.22;5116673;28;20327;-69
2023/03/31 10:01:28;;;;;;;;;;;;;;;13.92;67.62;94987.78;5115883;28;19963;-69
2023/03/31 10:03:55;;;;;;;;;;;;;;;14.17;64.96;94960.44;5116465;28;19954;-71
2023/03/31 10:06:25;;;;;;;;;;;;;;;14.38;65.61;94953.13;5114660;28;19951;-71
2023/03/31 10:08:54;;;;;;;;;;;;;;;14.57;64.40;94969.06;5115889;28;20302;-72
2023/03/31 10:11:21;;;;;;;;;;;;;;;14.50;59.46;94936.13;5115829;28;20371;-71
2023/03/31 10:14:26;;;;;;;;;;;;;;;14.44;61.77;94974.19;5114576;28;19946;-71
2023/03/31 10:16:53;;;;;;;;;;;;;;;14.53;63.01;94994.41;5073807;28;19971;-74
2023/03/31 10:19:26;;;;;;;;;;;;;;;14.55;61.42;94975.63;5073557;28;19938;-71
2023/03/31 10:21:57;;;;;;;;;;;;;;;14.51;61.57;94972.78;5095702;28;19951;-74
2023/03/31 10:24:23;;;;;;;;;;;;;;;14.39;59.92;94965.25;5115529;28;20320;-74
2023/03/31 10:26:52;;;;;;;;;;;;;;;14.25;58.45;94977.50;5115836;28;19945;-72
2023/03/31 10:29:37;;;;;;;;;;;;;;;14.15;59.09;95056.66;5116286;28;19945;-71
2023/03/31 10:32:21;;;;;;;;;;;;;;;14.18;60.12;95059.53;5115481;28;19951;-71
2023/03/31 10:34:47;;;;;;;;;;;;;;;14.50;64.25;95079.34;5115907;28;19941;-71
2023/03/31 10:37:16;;;;;;;;;;;;;;;14.83;58.29;95034.78;5114182;28;19965;-71
2023/03/31 10:39:42;;;;;;;;;;;;;;;14.98;56.79;95016.13;5114714;28;19945;-71
2023/03/31 10:42:09;;;;;;;;;;;;;;;14.93;57.31;95025.94;5115248;28;19941;-71
2023/03/31 10:44:36;;;;;;;;;;;;;;;14.88;57.37;95033.94;5114951;28;19948;-68
2023/03/31 10:47:16;;;;;;;;;;;;;;;14.84;57.33;95033.69;5115136;28;19943;-69
2023/03/31 10:49:43;;;;;;;;;;;;;;;14.77;58.60;95027.97;5115566;28;19944;-69
2023/03/31 10:52:22;;;;;;;;;;;;;;;14.57;58.10;95029.75;5115374;28;19947;-69
2023/03/31 10:54:57;;;;;;;;;;;;;;;14.40;58.83;95032.75;5114322;28;20389;-67
2023/03/31 10:57:46;;;;;;;;;;;;;;;14.26;60.35;95058.19;5115414;28;20410;-67
2023/03/31 11:00:13;;;;;;;;;;;;;;;13.79;61.84;95077.97;5114991;27;20302;-68
2023/03/31 11:02:58;;;;;;;;;;;;;;;13.33;66.52;95122.91;5096786;28;20461;-71
2023/03/31 11:05:42;;;;;;;;;;;;;;;12.89;69.52;95150.59;5114840;28;19948;-66
2023/03/31 11:08:23;;;;;;;;;;;;;;;12.42;73.10;95216.56;5115227;28;19935;-70
2023/03/31 11:11:05;;;;;;;;;;;;;;;11.92;77.85;95308.06;5114218;28;20286;-69
2023/03/31 11:13:32;;;;;;;;;;;;;;;11.06;80.25;95335.19;5114631;28;19968;-72
2023/03/31 11:16:01;;;;;;;;;;;;;;;10.28;84.07;95344.00;5114989;28;19949;-71
2023/03/31 11:18:32;;;;;;;;;;;;;;;9.73;85.80;95332.53;5114550;28;19941;-70
2023/03/31 11:21:01;;;;;;;;;;;;;;;9.27;87.79;95318.72;5113973;28;19947;-71
2023/03/31 11:23:40;;;;;;;;;;;;;;;9.02;89.94;95307.84;5114492;28;19943;-71
2023/03/31 11:26:21;;;;;;;;;;;;;;;8.88;92.10;95323.84;5115130;28;19950;-70
2023/03/31 11:29:04;;;;;;;;;;;;;;;8.72;93.37;95322.75;5115250;28;20270;-70
2023/03/31 11:31:42;;;;;;;;;;;;;;;8.56;95.29;95312.25;5114912;28;19950;-70
2023/03/31 11:34:17;;;;;;;;;;;;;;;8.53;93.72;95297.84;5115096;28;19942;-70
2023/03/31 11:37:06;;;;;;;;;;;;;;;8.48;94.31;95280.25;5114459;28;20415;-70
2023/03/31 11:39:50;;;;;;;;;;;;;;;8.50;96.33;95277.38;5115003;28;19938;-72
2023/03/31 11:42:23;;;;;;;;;;;;;;;8.60;97.26;95264.50;5114234;28;19942;-70
2023/03/31 11:44:51;;;;;;;;;;;;;;;8.74;97.06;95251.97;5113245;28;19934;-70
2023/03/31 11:47:21;;;;;;;;;;;;;;;8.86;95.68;95241.41;5114046;28;19947;-70
2023/03/31 11:49:52;;;;;;;;;;;;;;;9.16;94.11;95224.66;5114644;28;19959;-70
2023/03/31 11:52:23;;;;;;;;;;;;;;;9.40;91.67;95191.25;5114319;28;19938;-70
2023/03/31 11:54:49;;;;;;;;;;;;;;;9.52;93.24;95210.25;5114030;28;19951;-70
2023/03/31 11:57:18;;;;;;;;;;;;;;;9.55;92.88;95183.59;5113503;28;19954;-69
2023/03/31 11:59:46;;;;;;;;;;;;;;;9.53;92.14;95183.03;5114025;28;20310;-70
2023/03/31 12:02:18;;;;;;;;;;;;;;;9.60;93.17;95161.94;5112890;28;19973;-71
2023/03/31 12:04:50;;;;;;;;;;;;;;;9.62;91.22;95168.50;5114337;28;19945;-70
2023/03/31 12:07:22;;;;;;;;;;;;;;;9.76;90.32;95174.16;5114214;28;19939;-70
2023/03/31 12:09:48;;;;;;;;;;;;;;;10.08;93.34;95189.19;5114465;28;19944;-70
2023/03/31 12:12:17;;;;;;;;;;;;;;;10.33;89.80;95173.78;5114138;28;20032;-70
2023/03/31 12:14:57;;;;;;;;;;;;;;;10.50;90.20;95167.66;5113838;28;20334;-71
2023/03/31 12:17:27;;;;;;;;;;;;;;;10.55;86.83;95128.38;5114572;28;19976;-74
2023/03/31 12:19:56;;;;;;;;;;;;;;;10.68;90.19;95148.91;5113804;28;19938;-72
2023/03/31 12:22:27;;;;;;;;;;;;;;;11.03;90.47;95138.97;5113791;28;19948;-72
2023/03/31 12:24:53;;;;;;;;;;;;;;;11.26;85.53;95085.31;5113993;28;20331;-73
2023/03/31 12:27:22;;;;;;;;;;;;;;;11.37;86.75;95085.06;5113732;28;19970;-73
2023/03/31 12:30:10;;;;;;;;;;;;;;;11.59;86.12;95076.25;5113773;28;20419;-73
2023/03/31 12:32:39;;;;;;;;;;;;;;;11.83;85.56;95052.16;5114518;27;19948;-74
2023/03/31 12:35:26;;;;;;;;;;;;;;;12.03;82.32;95035.66;5112463;28;20397;-69
2023/03/31 12:37:55;;;;;;;;;;;;;;;11.88;76.96;94975.97;5113622;28;20427;-75
2023/03/31 12:40:33;;;;;;;;;;;;;;;12.02;80.78;94998.09;5114415;28;19940;-75
2023/03/31 12:43:08;;;;;;;;;;;;;;;12.25;80.22;94998.63;5113488;28;19947;-76
2023/03/31 12:45:49;;;;;;;;;;;;;;;12.48;75.52;94942.88;5114472;28;19942;-76
2023/03/31 12:48:44;;;;;;;;;;;;;;;12.73;78.38;94981.47;5114184;28;19945;-76
2023/03/31 12:51:29;;;;;;;;;;;;;;;12.97;75.90;94965.06;5104454;28;19953;-77
2023/03/31 12:54:12;;;;;;;;;;;;;;;12.87;75.09;94976.44;5113773;28;20400;-69
2023/03/31 12:56:57;;;;;;;;;;;;;;;12.75;75.50;94981.97;5113014;28;19961;-75
2023/03/31 12:59:40;;;;;;;;;;;;;;;12.64;77.19;95005.94;5113835;28;20413;-75
2023/03/31 13:02:08;;;;;;;;;;;;;;;12.39;75.92;95008.34;5113383;28;19964;-74